createdAt,value
2018-11-06T00:00:51.150Z,94.67
2018-11-06T00:01:58.103Z,94.27
2018-11-06T00:03:06.156Z,94.40
2018-11-06T00:04:08.914Z,94.25
2018-11-06T00:05:12.675Z,94.51
2018-11-06T00:06:15.435Z,94.38
2018-11-06T00:07:18.161Z,94.70
2018-11-06T00:08:21.135Z,94.71
2018-11-06T00:09:24.212Z,94.14
2018-11-06T00:10:26.946Z,94.39
2018-11-06T00:11:29.703Z,94.38
2018-11-06T00:12:32.838Z,94.31
2018-11-06T00:13:35.640Z,94.48
2018-11-06T00:14:38.370Z,94.08
2018-11-06T00:15:42.448Z,94.39
2018-11-06T00:16:46.409Z,94.40
2018-11-06T00:17:49.214Z,94.18
2018-11-06T00:18:54.911Z,94.32
2018-11-06T00:19:58.027Z,94.09
2018-11-06T00:21:01.848Z,94.60
2018-11-06T00:22:06.171Z,94.38
2018-11-06T00:23:09.046Z,94.03
2018-11-06T00:24:11.804Z,94.08
2018-11-06T00:25:15.999Z,93.99
2018-11-06T00:26:19.527Z,93.94
2018-11-06T00:27:22.270Z,93.87
2018-11-06T00:28:28.466Z,94.12
2018-11-06T00:29:31.190Z,94.18
2018-11-06T00:30:33.952Z,94.07
2018-11-06T00:31:36.685Z,94.09
2018-11-06T00:32:40.676Z,94.08
2018-11-06T00:33:43.453Z,94.23
2018-11-06T00:34:46.478Z,94.03
2018-11-06T00:35:49.215Z,93.93
2018-11-06T00:36:51.985Z,94.38
2018-11-06T00:37:54.794Z,94.07
2018-11-06T00:38:59.263Z,93.71
2018-11-06T00:40:02.029Z,94.04
2018-11-06T00:41:05.070Z,93.90
2018-11-06T00:42:08.019Z,93.82
2018-11-06T00:43:10.981Z,93.79
2018-11-06T00:44:13.720Z,94.11
2018-11-06T00:45:17.399Z,93.71
2018-11-06T00:46:20.141Z,93.94
2018-11-06T00:47:23.255Z,93.72
2018-11-06T00:48:26.024Z,93.87
2018-11-06T00:49:30.806Z,93.81
2018-11-06T00:50:33.581Z,93.67
2018-11-06T00:51:36.456Z,93.92
2018-11-06T00:52:39.878Z,93.83
2018-11-06T00:53:42.937Z,93.58
2018-11-06T00:54:45.735Z,93.76
2018-11-06T00:55:48.524Z,93.88
2018-11-06T00:56:51.302Z,93.41
2018-11-06T00:57:54.085Z,93.77
2018-11-06T00:58:56.900Z,93.93
2018-11-06T01:00:00.377Z,93.96
2018-11-06T01:01:03.147Z,93.98
2018-11-06T01:02:05.941Z,94.36
2018-11-06T01:03:08.949Z,94.11
2018-11-06T01:04:13.852Z,94.65
2018-11-06T01:05:17.337Z,94.45
2018-11-06T01:06:20.539Z,94.14
2018-11-06T01:07:23.403Z,94.52
2018-11-06T01:08:26.207Z,94.12
2018-11-06T01:09:29.009Z,94.32
2018-11-06T01:10:31.794Z,94.41
2018-11-06T01:11:34.587Z,94.37
2018-11-06T01:12:38.196Z,94.14
2018-11-06T01:13:41.031Z,94.35
2018-11-06T01:14:43.776Z,94.48
2018-11-06T01:15:46.542Z,94.45
2018-11-06T01:16:49.397Z,94.53
2018-11-06T01:17:52.353Z,94.11
2018-11-06T01:18:55.105Z,94.35
2018-11-06T01:20:00.155Z,94.68
2018-11-06T01:21:03.247Z,94.62
2018-11-06T01:22:06.035Z,94.75
2018-11-06T01:23:08.805Z,94.46
2018-11-06T01:24:11.631Z,94.67
2018-11-06T01:25:15.113Z,94.44
2018-11-06T01:26:17.894Z,94.25
2018-11-06T01:27:20.677Z,93.84
2018-11-06T01:28:23.818Z,94.51
2018-11-06T01:29:26.646Z,94.87
2018-11-06T01:30:29.412Z,95.06
2018-11-06T01:31:32.581Z,94.93
2018-11-06T01:32:35.327Z,94.62
2018-11-06T01:33:38.057Z,94.62
2018-11-06T01:34:40.823Z,94.72
2018-11-06T01:35:43.594Z,94.73
2018-11-06T01:36:46.330Z,94.41
2018-11-06T01:37:49.552Z,94.44
2018-11-06T01:38:52.307Z,94.81
2018-11-06T01:39:55.063Z,94.60
2018-11-06T01:40:57.901Z,94.61
2018-11-06T01:42:01.026Z,94.67
2018-11-06T01:43:03.761Z,94.94
2018-11-06T01:44:07.007Z,94.42
2018-11-06T01:45:09.870Z,94.86
2018-11-06T01:46:12.607Z,94.43
2018-11-06T01:47:15.386Z,94.71
2018-11-06T01:48:18.403Z,94.38
2018-11-06T01:49:21.456Z,94.71
2018-11-06T01:50:24.667Z,94.75
2018-11-06T01:51:27.440Z,94.67
2018-11-06T01:52:30.172Z,94.72
2018-11-06T01:53:32.968Z,94.58
2018-11-06T01:54:35.806Z,94.67
2018-11-06T01:55:40.542Z,94.50
2018-11-06T01:56:43.861Z,94.81
2018-11-06T01:57:46.956Z,94.81
2018-11-06T01:58:49.698Z,95.03
2018-11-06T01:59:52.417Z,94.71
2018-11-06T02:00:55.136Z,94.65
2018-11-06T02:01:57.943Z,94.37
2018-11-06T02:03:01.191Z,94.60
2018-11-06T02:04:03.965Z,94.49
2018-11-06T02:05:06.692Z,94.27
2018-11-06T02:06:09.433Z,94.38
2018-11-06T02:07:13.371Z,94.45
2018-11-06T02:08:16.438Z,94.50
2018-11-06T02:09:19.467Z,94.42
2018-11-06T02:10:22.271Z,94.31
2018-11-06T02:11:25.013Z,94.58
2018-11-06T02:12:27.754Z,94.58
2018-11-06T02:13:30.483Z,94.72
2018-11-06T02:14:33.206Z,94.57
2018-11-06T02:15:36.269Z,94.43
2018-11-06T02:16:39.045Z,94.61
2018-11-06T02:17:43.781Z,94.26
2018-11-06T02:18:46.582Z,94.25
2018-11-06T02:19:49.360Z,94.28
2018-11-06T02:20:52.113Z,94.77
2018-11-06T02:21:55.142Z,94.32
2018-11-06T02:22:59.925Z,94.41
2018-11-06T02:24:08.127Z,94.14
2018-11-06T02:25:11.629Z,94.24
2018-11-06T02:26:15.305Z,94.68
2018-11-06T02:27:18.269Z,94.56
2018-11-06T02:28:21.333Z,94.34
2018-11-06T02:29:24.059Z,94.41
2018-11-06T02:30:26.772Z,94.48
2018-11-06T02:31:31.138Z,94.29
2018-11-06T02:32:34.541Z,94.41
2018-11-06T02:33:37.273Z,94.33
2018-11-06T02:34:42.452Z,94.38
2018-11-06T02:37:23.002Z,93.88
2018-11-06T02:38:25.779Z,94.11
2018-11-06T02:39:30.239Z,94.36
2018-11-06T02:40:34.056Z,94.59
2018-11-06T02:41:36.825Z,94.68
2018-11-06T02:42:40.641Z,94.65
2018-11-06T02:43:43.437Z,94.29
2018-11-06T02:44:47.496Z,94.47
2018-11-06T02:45:52.142Z,94.42
2018-11-06T02:46:55.162Z,94.30
2018-11-06T02:47:58.458Z,94.54
2018-11-06T02:49:01.190Z,94.37
2018-11-06T02:50:03.937Z,94.41
2018-11-06T02:51:06.714Z,94.28
2018-11-06T02:52:09.936Z,94.31
2018-11-06T02:53:13.192Z,94.30
2018-11-06T02:54:15.962Z,94.33
2018-11-06T02:55:18.730Z,94.46
2018-11-06T02:56:21.485Z,94.52
2018-11-06T02:57:24.215Z,94.54
2018-11-06T02:58:57.583Z,94.18
2018-11-06T03:00:00.590Z,94.43
2018-11-06T03:01:05.032Z,94.45
2018-11-06T03:02:07.777Z,94.53
2018-11-06T03:03:10.496Z,94.69
2018-11-06T03:04:13.794Z,95.28
2018-11-06T03:05:17.970Z,94.57
2018-11-06T03:06:20.869Z,94.70
2018-11-06T03:07:23.699Z,95.21
2018-11-06T03:08:26.784Z,94.75
2018-11-06T03:09:29.707Z,94.51
2018-11-06T03:10:32.572Z,94.85
2018-11-06T03:11:35.513Z,94.69
2018-11-06T03:12:41.783Z,95.15
2018-11-06T03:13:44.540Z,94.46
2018-11-06T03:14:47.328Z,94.89
2018-11-06T03:15:50.043Z,95.03
2018-11-06T03:16:52.836Z,94.70
2018-11-06T03:17:55.866Z,94.78
2018-11-06T03:18:58.942Z,94.63
2018-11-06T03:20:02.005Z,94.94
2018-11-06T03:21:04.887Z,94.78
2018-11-06T03:22:07.871Z,94.97
2018-11-06T03:23:10.669Z,95.16
2018-11-06T03:24:13.425Z,95.07
2018-11-06T03:25:16.286Z,94.93
2018-11-06T03:26:19.095Z,94.88
2018-11-06T03:27:21.814Z,95.08
2018-11-06T03:28:24.576Z,94.89
2018-11-06T03:29:27.298Z,94.97
2018-11-06T03:30:30.748Z,94.84
2018-11-06T03:31:33.520Z,95.03
2018-11-06T03:32:36.258Z,95.12
2018-11-06T03:33:39.067Z,95.25
2018-11-06T03:34:41.781Z,95.07
2018-11-06T03:35:44.554Z,95.00
2018-11-06T03:36:47.591Z,95.08
2018-11-06T03:37:50.385Z,94.76
2018-11-06T03:38:53.103Z,94.77
2018-11-06T03:39:56.649Z,94.83
2018-11-06T03:40:59.384Z,95.13
2018-11-06T03:42:02.134Z,94.91
2018-11-06T03:43:05.213Z,95.01
2018-11-06T03:44:08.526Z,94.96
2018-11-06T03:45:12.506Z,94.94
2018-11-06T03:46:15.311Z,94.96
2018-11-06T03:47:18.070Z,95.00
2018-11-06T03:48:20.844Z,94.69
2018-11-06T03:49:24.454Z,94.97
2018-11-06T03:50:27.219Z,94.86
2018-11-06T03:51:30.077Z,95.12
2018-11-06T03:52:33.630Z,95.40
2018-11-06T03:53:36.390Z,95.46
2018-11-06T03:54:39.117Z,95.53
2018-11-06T03:55:42.169Z,95.47
2018-11-06T03:56:44.994Z,95.57
2018-11-06T03:57:47.749Z,95.48
2018-11-06T03:58:50.499Z,95.01
2018-11-06T03:59:53.247Z,95.25
2018-11-06T04:00:56.218Z,95.31
2018-11-06T04:01:59.605Z,95.44
2018-11-06T04:03:02.359Z,95.43
2018-11-06T04:04:05.363Z,95.18
2018-11-06T04:05:08.257Z,95.07
2018-11-06T04:06:11.021Z,95.10
2018-11-06T04:07:13.763Z,94.99
2018-11-06T04:08:16.772Z,94.95
2018-11-06T04:09:19.560Z,95.02
2018-11-06T04:10:22.326Z,94.74
2018-11-06T04:11:25.222Z,94.92
2018-11-06T04:12:27.978Z,94.85
2018-11-06T04:13:30.741Z,94.79
2018-11-06T04:14:33.774Z,94.43
2018-11-06T04:15:38.157Z,94.83
2018-11-06T04:16:42.923Z,94.49
2018-11-06T04:17:45.885Z,94.46
2018-11-06T04:18:48.633Z,94.58
2018-11-06T04:19:51.369Z,94.42
2018-11-06T04:20:54.503Z,94.36
2018-11-06T04:21:57.260Z,94.81
2018-11-06T04:23:00.160Z,94.77
2018-11-06T04:24:03.064Z,94.76
2018-11-06T04:25:05.911Z,94.76
2018-11-06T04:26:08.773Z,94.80
2018-11-06T04:27:12.234Z,94.82
2018-11-06T04:28:15.018Z,94.79
2018-11-06T04:29:17.761Z,94.86
2018-11-06T04:30:20.519Z,94.61
2018-11-06T04:31:23.327Z,94.74
2018-11-06T04:32:26.093Z,94.57
2018-11-06T04:33:29.163Z,94.49
2018-11-06T04:34:31.932Z,94.76
2018-11-06T04:35:34.898Z,94.65
2018-11-06T04:36:39.272Z,94.71
2018-11-06T04:37:42.589Z,94.75
2018-11-06T04:38:45.320Z,94.87
2018-11-06T04:39:48.763Z,94.40
2018-11-06T04:40:51.749Z,94.79
2018-11-06T04:41:55.797Z,94.63
2018-11-06T04:42:59.017Z,94.73
2018-11-06T04:44:01.795Z,94.52
2018-11-06T04:45:06.191Z,94.65
2018-11-06T04:46:09.105Z,94.62
2018-11-06T04:47:12.150Z,94.61
2018-11-06T04:48:14.916Z,94.68
2018-11-06T04:49:18.456Z,94.49
2018-11-06T04:50:21.180Z,94.69
2018-11-06T04:51:23.898Z,94.58
2018-11-06T04:52:26.681Z,94.60
2018-11-06T04:53:30.623Z,94.31
2018-11-06T04:54:33.380Z,94.37
2018-11-06T04:55:36.178Z,94.43
2018-11-06T04:56:40.942Z,94.51
2018-11-06T04:57:44.279Z,94.46
2018-11-06T04:58:47.028Z,94.36
2018-11-06T04:59:49.840Z,94.70
2018-11-06T05:00:52.611Z,94.77
2018-11-06T05:01:55.500Z,94.80
2018-11-06T05:02:59.143Z,94.08
2018-11-06T05:04:01.893Z,94.48
2018-11-06T05:05:04.732Z,94.77
2018-11-06T05:06:07.481Z,95.15
2018-11-06T05:07:10.251Z,94.57
2018-11-06T05:08:13.942Z,94.79
2018-11-06T05:09:17.531Z,95.02
2018-11-06T05:10:20.296Z,94.73
2018-11-06T05:11:23.720Z,95.26
2018-11-06T05:12:26.456Z,95.11
2018-11-06T05:13:29.194Z,94.69
2018-11-06T05:14:32.778Z,94.57
2018-11-06T05:15:37.371Z,94.77
2018-11-06T05:16:40.251Z,94.75
2018-11-06T05:17:43.320Z,94.84
2018-11-06T05:18:46.349Z,94.66
2018-11-06T05:19:49.095Z,94.71
2018-11-06T05:20:51.874Z,94.51
2018-11-06T05:21:55.600Z,94.83
2018-11-06T05:22:58.368Z,94.95
2018-11-06T05:24:01.098Z,94.75
2018-11-06T05:25:03.887Z,94.61
2018-11-06T05:26:06.683Z,94.81
2018-11-06T05:27:09.833Z,94.43
2018-11-06T05:28:12.578Z,95.00
2018-11-06T05:29:15.678Z,94.50
2018-11-06T05:30:18.648Z,94.42
2018-11-06T05:31:21.428Z,95.00
2018-11-06T05:32:24.195Z,94.17
2018-11-06T05:33:27.567Z,94.56
2018-11-06T05:34:30.703Z,94.09
2018-11-06T05:35:33.440Z,94.39
2018-11-06T05:36:36.181Z,94.01
2018-11-06T05:37:39.107Z,93.92
2018-11-06T05:38:41.878Z,94.33
2018-11-06T05:39:44.901Z,94.44
2018-11-06T05:40:47.646Z,94.23
2018-11-06T05:41:50.666Z,94.00
2018-11-06T05:42:53.419Z,94.36
2018-11-06T05:43:56.207Z,94.41
2018-11-06T05:44:59.128Z,94.27
2018-11-06T05:46:01.882Z,94.16
2018-11-06T05:47:07.742Z,94.25
2018-11-06T05:48:12.062Z,94.07
2018-11-06T05:49:15.489Z,94.03
2018-11-06T05:50:18.276Z,93.89
2018-11-06T05:51:21.035Z,94.07
2018-11-06T05:52:24.660Z,93.83
2018-11-06T05:53:27.507Z,93.65
2018-11-06T05:54:30.457Z,93.72
2018-11-06T05:55:34.979Z,94.02
2018-11-06T05:56:37.743Z,94.10
2018-11-06T05:57:40.464Z,94.10
2018-11-06T05:58:43.669Z,94.00
2018-11-06T05:59:46.405Z,93.87
2018-11-06T06:00:49.358Z,94.04
2018-11-06T06:01:52.164Z,94.27
2018-11-06T06:02:54.904Z,93.94
2018-11-06T06:03:57.632Z,93.86
2018-11-06T06:05:00.678Z,93.91
2018-11-06T06:06:04.212Z,93.93
2018-11-06T06:07:06.966Z,94.41
2018-11-06T06:08:09.839Z,94.20
2018-11-06T06:09:12.616Z,94.47
2018-11-06T06:10:17.282Z,94.10
2018-11-06T06:11:20.009Z,93.93
2018-11-06T06:12:22.959Z,93.96
2018-11-06T06:13:26.593Z,94.05
2018-11-06T06:14:29.469Z,94.75
2018-11-06T06:15:32.321Z,94.21
2018-11-06T06:16:35.752Z,94.47
2018-11-06T06:17:38.518Z,94.12
2018-11-06T06:18:41.251Z,94.17
2018-11-06T06:20:52.622Z,94.39
2018-11-06T06:21:56.249Z,94.53
2018-11-06T06:23:01.028Z,94.17
2018-11-06T06:24:03.772Z,94.21
2018-11-06T06:25:06.718Z,94.16
2018-11-06T06:26:09.895Z,94.07
2018-11-06T06:27:13.487Z,94.34
2018-11-06T06:28:16.302Z,94.21
2018-11-06T06:29:19.478Z,94.60
2018-11-06T06:30:22.236Z,94.28
2018-11-06T06:31:28.611Z,94.19
2018-11-06T06:46:06.897Z,95.10
2018-11-06T06:47:09.935Z,94.97
2018-11-06T06:48:12.698Z,94.81
2018-11-06T06:49:15.532Z,95.08
2018-11-06T06:50:19.426Z,95.11
2018-11-06T06:51:22.429Z,94.86
2018-11-06T06:52:25.203Z,95.04
2018-11-06T06:53:28.154Z,95.12
2018-11-06T06:54:31.057Z,94.76
2018-11-06T06:55:33.705Z,94.79
2018-11-06T06:56:36.730Z,94.67
2018-11-06T06:57:41.293Z,94.84
2018-11-06T06:58:45.338Z,94.37
2018-11-06T06:59:48.961Z,94.46
2018-11-06T07:00:53.704Z,94.12
2018-11-06T07:01:57.065Z,94.26
2018-11-06T07:03:01.513Z,93.87
2018-11-06T07:04:05.359Z,94.45
2018-11-06T07:05:09.447Z,94.71
2018-11-06T07:06:12.783Z,94.17
2018-11-06T07:07:16.015Z,94.48
2018-11-06T07:08:19.085Z,94.32
2018-11-06T07:09:23.100Z,93.75
2018-11-06T07:10:26.127Z,94.07
2018-11-06T07:11:30.586Z,93.88
2018-11-06T07:12:33.570Z,94.37
2018-11-06T07:13:37.455Z,93.96
2018-11-06T07:14:40.213Z,93.91
2018-11-06T07:15:43.308Z,93.72
2018-11-06T07:16:46.590Z,93.72
2018-11-06T07:17:50.003Z,93.53
2018-11-06T07:18:52.758Z,93.50
2018-11-06T07:19:55.821Z,93.41
2018-11-06T07:21:00.440Z,93.25
2018-11-06T07:22:03.794Z,93.33
2018-11-06T07:23:06.852Z,93.58
2018-11-06T07:24:09.696Z,93.76
2018-11-06T07:25:13.632Z,93.75
2018-11-06T07:26:16.685Z,93.35
2018-11-06T07:27:20.499Z,93.48
2018-11-06T07:28:23.784Z,93.48
2018-11-06T07:29:26.577Z,93.65
2018-11-06T07:30:29.298Z,93.16
2018-11-06T07:31:32.869Z,93.27
2018-11-06T07:32:35.627Z,93.47
2018-11-06T07:33:41.244Z,93.25
2018-11-06T07:34:45.463Z,93.32
2018-11-06T07:35:49.517Z,93.00
2018-11-06T07:36:52.363Z,93.44
2018-11-06T07:37:55.316Z,93.18
2018-11-06T07:38:59.966Z,93.00
2018-11-06T07:40:02.786Z,93.08
2018-11-06T07:41:06.401Z,92.95
2018-11-06T07:42:09.253Z,93.12
2018-11-06T07:43:13.473Z,93.13
2018-11-06T07:44:16.220Z,93.12
2018-11-06T07:45:21.427Z,93.21
2018-11-06T07:46:25.594Z,93.11
2018-11-06T07:47:29.207Z,92.99
2018-11-06T07:48:31.968Z,92.58
2018-11-06T07:49:34.714Z,92.86
2018-11-06T07:50:39.037Z,92.54
2018-11-06T07:51:41.805Z,92.76
2018-11-06T07:52:44.950Z,92.51
2018-11-06T07:53:51.335Z,92.46
2018-11-06T07:54:54.402Z,92.34
2018-11-06T07:55:57.260Z,92.21
2018-11-06T07:57:00.704Z,92.17
2018-11-06T07:58:03.477Z,91.72
2018-11-06T07:59:09.940Z,91.78
2018-11-06T08:00:15.325Z,91.25
2018-11-06T08:01:19.006Z,91.19
2018-11-06T08:02:21.972Z,90.89
2018-11-06T08:03:25.218Z,90.52
2018-11-06T08:04:29.964Z,90.71
2018-11-06T08:05:32.921Z,91.30
2018-11-06T08:06:36.131Z,90.49
2018-11-06T08:07:38.896Z,90.18
2018-11-06T08:08:41.739Z,90.20
2018-11-06T08:09:45.409Z,89.74
2018-11-06T08:10:48.989Z,89.12
2018-11-06T08:11:51.903Z,89.46
2018-11-06T08:12:55.955Z,89.06
2018-11-06T08:13:59.160Z,89.17
2018-11-06T08:15:02.213Z,88.52
2018-11-06T08:16:05.014Z,87.65
2018-11-06T08:17:08.109Z,87.14
2018-11-06T08:18:10.900Z,86.14
2018-11-06T08:19:14.029Z,85.33
2018-11-06T08:20:16.901Z,84.18
2018-11-06T08:21:19.692Z,83.75
2018-11-06T08:22:22.483Z,83.09
2018-11-06T08:23:25.476Z,82.75
2018-11-06T08:24:33.465Z,82.55
2018-11-06T08:25:41.772Z,82.10
2018-11-06T08:26:45.443Z,80.85
2018-11-06T08:27:48.830Z,80.40
2018-11-06T08:28:52.073Z,80.17
2018-11-06T08:29:55.619Z,79.95
2018-11-06T08:31:00.917Z,79.75
2018-11-06T08:32:04.605Z,78.87
2018-11-06T08:33:13.893Z,78.66
2018-11-06T08:34:28.543Z,78.47
2018-11-06T08:40:01.848Z,76.37
2018-11-06T08:41:06.299Z,76.20
2018-11-06T08:43:25.465Z,74.13
2018-11-06T08:44:30.630Z,74.44
2018-11-06T08:46:51.292Z,72.97
2018-11-06T08:47:55.356Z,72.55
2018-11-06T08:48:58.261Z,72.11
2018-11-06T08:50:01.076Z,72.36
2018-11-06T08:51:03.919Z,71.88
2018-11-06T08:52:07.311Z,71.41
2018-11-06T08:54:35.887Z,72.46
2018-11-06T08:55:43.916Z,71.81
2018-11-06T08:56:54.828Z,72.14
2018-11-06T08:58:14.355Z,72.23
2018-11-06T08:59:26.766Z,73.41
2018-11-06T09:00:29.529Z,73.39
2018-11-06T09:01:35.724Z,73.77
2018-11-06T09:02:38.726Z,75.14
2018-11-06T09:03:41.811Z,75.37
2018-11-06T09:04:45.338Z,75.79
2018-11-06T09:05:48.138Z,74.96
2018-11-06T09:06:51.843Z,74.33
2018-11-06T09:07:54.820Z,73.94
2018-11-06T09:08:59.164Z,73.47
2018-11-06T09:10:02.011Z,72.50
2018-11-06T09:11:05.692Z,71.84
2018-11-06T09:12:08.683Z,71.87
2018-11-06T09:13:11.507Z,72.40
2018-11-06T09:14:14.290Z,73.72
2018-11-06T09:15:17.798Z,73.94
2018-11-06T09:16:21.023Z,74.64
2018-11-06T09:17:27.439Z,75.46
2018-11-06T09:18:30.459Z,76.01
2018-11-06T09:19:33.456Z,76.46
2018-11-06T09:20:36.338Z,77.16
2018-11-06T09:21:39.698Z,77.77
2018-11-06T09:22:43.312Z,77.49
2018-11-06T09:23:47.966Z,77.02
2018-11-06T09:24:51.115Z,77.35
2018-11-06T09:25:53.902Z,77.30
2018-11-06T09:26:56.690Z,77.48
2018-11-06T09:28:02.229Z,78.03
2018-11-06T09:29:05.443Z,78.58
2018-11-06T09:30:09.278Z,78.88
2018-11-06T09:31:13.084Z,79.32
2018-11-06T09:32:16.323Z,78.92
2018-11-06T09:33:20.291Z,79.08
2018-11-06T09:34:23.269Z,79.20
2018-11-06T09:35:26.322Z,79.12
2018-11-06T09:36:30.737Z,79.69
2018-11-06T09:37:33.560Z,79.82
2018-11-06T09:38:36.936Z,79.20
2018-11-06T09:39:40.045Z,79.79
2018-11-06T09:40:43.733Z,80.02
2018-11-06T09:41:47.697Z,80.26
2018-11-06T09:42:53.130Z,80.01
2018-11-06T09:43:56.025Z,80.53
2018-11-06T09:44:59.112Z,81.30
2018-11-06T09:46:03.295Z,80.39
2018-11-06T09:47:06.965Z,80.44
2018-11-06T09:48:18.170Z,80.36
2018-11-06T09:49:21.689Z,80.35
2018-11-06T09:50:25.988Z,79.94
2018-11-06T09:51:28.959Z,79.70
2018-11-06T09:52:40.884Z,80.61
2018-11-06T09:53:52.970Z,80.22
2018-11-06T09:55:01.054Z,79.96
2018-11-06T09:56:04.481Z,80.16
2018-11-06T09:57:10.275Z,79.89
2018-11-06T09:58:13.833Z,78.96
2018-11-06T09:59:18.333Z,79.73
2018-11-06T10:00:23.665Z,79.78
2018-11-06T10:01:29.203Z,79.92
2018-11-06T10:02:41.576Z,79.52
2018-11-06T10:03:45.486Z,79.48
2018-11-06T10:04:53.586Z,80.05
2018-11-06T10:06:01.212Z,80.35
2018-11-06T10:07:07.593Z,79.88
2018-11-06T10:08:11.548Z,80.17
2018-11-06T10:09:18.074Z,80.52
2018-11-06T10:10:22.987Z,80.73
2018-11-06T10:11:27.448Z,81.16
2018-11-06T10:12:30.710Z,80.87
2018-11-06T10:13:34.861Z,81.11
2018-11-06T10:14:44.659Z,81.01
2018-11-06T10:15:49.364Z,81.41
2018-11-06T10:16:52.328Z,81.73
2018-11-06T10:17:57.227Z,81.56
2018-11-06T10:19:00.338Z,81.52
2018-11-06T10:20:03.625Z,82.31
2018-11-06T10:21:07.064Z,81.24
2018-11-06T10:22:09.913Z,81.52
2018-11-06T10:23:12.770Z,80.94
2018-11-06T10:24:15.859Z,81.37
2018-11-06T10:25:18.660Z,82.12
2018-11-06T10:26:24.344Z,82.64
2018-11-06T10:27:27.120Z,81.64
2018-11-06T10:28:34.553Z,81.30
2018-11-06T10:29:37.317Z,80.50
2018-11-06T10:30:40.742Z,79.95
2018-11-06T10:31:44.087Z,79.94
2018-11-06T10:32:48.444Z,80.37
2018-11-06T10:33:52.412Z,80.57
2018-11-06T10:34:55.379Z,80.86
2018-11-06T10:36:00.929Z,81.17
2018-11-06T10:37:04.104Z,81.45
2018-11-06T10:38:07.487Z,80.84
2018-11-06T10:39:13.754Z,81.30
2018-11-06T10:40:23.657Z,80.05
2018-11-06T10:41:26.755Z,80.71
2018-11-06T10:42:31.710Z,80.69
2018-11-06T10:43:34.710Z,79.72
2018-11-06T10:44:39.428Z,78.87
2018-11-06T10:45:45.128Z,78.28
2018-11-06T10:46:48.495Z,78.94
2018-11-06T10:47:54.679Z,79.19
2018-11-06T10:48:59.326Z,78.91
2018-11-06T10:50:02.224Z,78.96
2018-11-06T10:51:05.396Z,78.36
2018-11-06T10:52:08.146Z,78.50
2018-11-06T10:53:11.683Z,78.46
2018-11-06T10:54:14.652Z,78.01
2018-11-06T10:55:21.192Z,77.75
2018-11-06T10:56:24.344Z,76.81
2018-11-06T10:57:28.270Z,77.23
2018-11-06T10:58:32.566Z,76.77
2018-11-06T10:59:35.383Z,76.41
2018-11-06T11:00:43.009Z,76.94
2018-11-06T11:01:50.769Z,77.09
2018-11-06T11:02:58.412Z,76.70
2018-11-06T11:04:06.473Z,76.73
2018-11-06T11:05:09.397Z,75.75
2018-11-06T11:06:12.324Z,75.96
2018-11-06T11:07:15.742Z,75.74
2018-11-06T11:08:18.885Z,74.76
2018-11-06T11:09:21.758Z,74.74
2018-11-06T11:10:25.598Z,75.13
2018-11-06T11:11:28.663Z,75.07
2018-11-06T11:12:31.499Z,75.07
2018-11-06T11:13:35.383Z,74.56
2018-11-06T11:14:40.213Z,74.89
2018-11-06T11:15:44.483Z,74.40
2018-11-06T11:16:47.813Z,75.23
2018-11-06T11:17:51.758Z,74.36
2018-11-06T11:18:54.562Z,74.28
2018-11-06T11:20:03.763Z,74.45
2018-11-06T11:21:06.550Z,73.97
2018-11-06T11:22:09.363Z,74.48
2018-11-06T11:23:14.293Z,74.05
2018-11-06T11:24:18.626Z,73.43
2018-11-06T11:25:23.862Z,73.85
2018-11-06T11:26:26.745Z,74.18
2018-11-06T11:27:30.563Z,73.52
2018-11-06T11:28:33.678Z,74.08
2018-11-06T11:29:37.132Z,74.51
2018-11-06T11:42:54.422Z,72.17
2018-11-06T11:43:58.612Z,71.30
2018-11-06T11:45:03.547Z,71.67
2018-11-06T11:46:06.361Z,70.78
2018-11-06T11:47:13.534Z,71.01
2018-11-06T11:48:20.532Z,70.33
2018-11-06T11:49:23.874Z,70.86
2018-11-06T11:50:27.443Z,70.21
2018-11-06T11:51:31.655Z,68.79
2018-11-06T11:52:36.725Z,68.16
2018-11-06T11:53:40.742Z,68.34
2018-11-06T11:54:44.389Z,68.07
2018-11-06T11:55:49.099Z,68.10
2018-11-06T11:56:52.925Z,68.17
2018-11-06T11:57:56.935Z,67.16
2018-11-06T11:59:00.483Z,67.69
2018-11-06T12:00:03.438Z,66.83
2018-11-06T12:01:07.174Z,67.59
2018-11-06T12:02:11.152Z,66.54
2018-11-06T12:03:19.176Z,67.19
2018-11-06T12:04:22.234Z,67.20
2018-11-06T12:05:26.343Z,64.93
2018-11-06T12:06:29.834Z,65.78
2018-11-06T12:07:33.045Z,64.54
2018-11-06T12:08:36.721Z,64.85
2018-11-06T12:09:40.625Z,64.34
2018-11-06T12:10:43.418Z,64.50
2018-11-06T12:11:46.251Z,63.60
2018-11-06T12:12:49.304Z,63.93
2018-11-06T12:13:52.533Z,64.08
2018-11-06T12:14:55.310Z,64.74
2018-11-06T12:15:59.078Z,64.27
2018-11-06T12:17:04.728Z,62.87
2018-11-06T12:18:08.505Z,62.76
2018-11-06T12:19:11.474Z,62.54
2018-11-06T12:20:16.476Z,62.98
2018-11-06T12:21:19.861Z,63.30
2018-11-06T12:22:24.217Z,62.49
2018-11-06T12:23:27.017Z,62.38
2018-11-06T12:24:30.533Z,61.72
2018-11-06T12:25:37.757Z,61.56
2018-11-06T12:26:40.677Z,61.76
2018-11-06T12:27:44.829Z,61.35
2018-11-06T12:28:48.582Z,62.94
2018-11-06T12:29:51.395Z,63.78
2018-11-06T12:30:55.326Z,63.08
2018-11-06T12:31:58.220Z,63.39
2018-11-06T12:33:01.626Z,61.70
2018-11-06T12:34:04.560Z,61.16
2018-11-06T12:35:08.472Z,60.79
2018-11-06T12:36:12.036Z,60.92
2018-11-06T12:37:15.783Z,60.92
2018-11-06T12:38:19.194Z,60.75
2018-11-06T12:39:25.319Z,60.86
2018-11-06T12:40:28.337Z,60.66
2018-11-06T12:41:34.409Z,60.10
2018-11-06T12:42:38.004Z,59.02
2018-11-06T12:43:41.639Z,59.39
2018-11-06T12:44:44.603Z,59.90
2018-11-06T12:45:49.104Z,60.01
2018-11-06T12:46:52.012Z,59.47
2018-11-06T12:47:54.763Z,60.39
2018-11-06T12:48:57.777Z,60.35
2018-11-06T12:50:02.273Z,59.77
2018-11-06T12:51:06.500Z,60.06
2018-11-06T12:52:10.564Z,60.77
2018-11-06T12:53:14.561Z,60.38
2018-11-06T12:54:17.952Z,60.33
2018-11-06T12:55:21.613Z,61.70
2018-11-06T12:56:28.006Z,60.81
2018-11-06T12:57:32.209Z,59.93
2018-11-06T12:58:37.092Z,59.62
2018-11-06T12:59:42.863Z,60.49
2018-11-06T13:00:46.521Z,60.25
2018-11-06T13:01:52.008Z,60.64
2018-11-06T13:02:55.754Z,61.92
2018-11-06T13:03:59.852Z,61.75
2018-11-06T13:05:02.822Z,61.58
2018-11-06T13:06:06.398Z,59.86
2018-11-06T13:07:10.009Z,59.84
2018-11-06T13:08:15.483Z,59.84
2018-11-06T13:10:29.171Z,58.13
2018-11-06T13:11:34.219Z,58.39
2018-11-06T13:12:37.312Z,58.81
2018-11-06T13:13:42.318Z,58.66
2018-11-06T13:14:46.788Z,58.86
2018-11-06T13:15:52.730Z,59.23
2018-11-06T13:16:56.637Z,58.82
2018-11-06T13:17:59.624Z,58.82
2018-11-06T13:19:04.830Z,58.87
2018-11-06T13:20:09.171Z,59.14
2018-11-06T13:21:12.967Z,59.32
2018-11-06T13:22:16.971Z,58.67
2018-11-06T13:23:20.155Z,59.91
2018-11-06T13:24:24.063Z,59.73
2018-11-06T13:25:26.856Z,60.88
2018-11-06T13:26:30.595Z,60.85
2018-11-06T13:27:34.718Z,60.96
2018-11-06T13:28:37.751Z,60.55
2018-11-06T13:29:44.642Z,60.48
2018-11-06T13:30:48.091Z,60.65
2018-11-06T13:31:51.602Z,61.04
2018-11-06T13:32:54.380Z,60.68
2018-11-06T13:34:01.993Z,60.91
2018-11-06T13:35:36.468Z,60.63
2018-11-06T13:36:42.623Z,59.51
2018-11-06T13:37:51.482Z,59.00
2018-11-06T13:38:54.528Z,58.73
2018-11-06T13:39:58.644Z,58.75
2018-11-06T13:41:04.031Z,58.70
2018-11-06T13:42:07.559Z,59.29
2018-11-06T13:43:12.453Z,58.38
2018-11-06T13:44:30.526Z,58.73
2018-11-06T13:45:33.746Z,58.17
2018-11-06T13:46:38.921Z,58.14
2018-11-06T13:47:44.514Z,58.70
2018-11-06T13:48:49.122Z,57.95
2018-11-06T13:49:53.225Z,58.24
2018-11-06T13:51:00.833Z,57.71
2018-11-06T13:52:04.637Z,56.88
2018-11-06T13:53:07.535Z,58.11
2018-11-06T13:54:10.813Z,57.00
2018-11-06T13:55:15.331Z,57.93
2018-11-06T13:56:19.670Z,56.52
2018-11-06T13:57:23.326Z,56.43
2018-11-06T13:58:26.114Z,56.67
2018-11-06T13:59:29.079Z,57.28
2018-11-06T14:00:34.906Z,56.81
2018-11-06T14:01:38.241Z,56.53
2018-11-06T14:02:40.990Z,56.83
2018-11-06T14:03:44.663Z,56.15
2018-11-06T14:04:49.234Z,55.92
2018-11-06T14:05:53.111Z,56.34
2018-11-06T14:06:57.430Z,55.64
2018-11-06T14:08:00.906Z,54.01
2018-11-06T14:09:05.460Z,54.62
2018-11-06T14:10:10.413Z,53.19
2018-11-06T14:11:13.864Z,53.78
2018-11-06T14:12:21.567Z,53.31
2018-11-06T14:13:25.688Z,53.20
2018-11-06T14:14:30.715Z,52.02
2018-11-06T14:15:34.542Z,52.43
2018-11-06T14:17:49.690Z,52.94
2018-11-06T14:18:53.671Z,52.79
2018-11-06T14:19:57.014Z,52.00
2018-11-06T14:21:03.411Z,51.42